sensor_id;sensor_type;location;lat;lon;timestamp;P1;durP1;ratioP1;P2;durP2;ratioP2
77400;SDS011;66855;45.414;11.082;2023-03-24T00:00:20;31.30;;;17.50;;
77400;SDS011;66855;45.414;11.082;2023-03-24T00:02:49;33.90;;;18.20;;
77400;SDS011;66855;45.414;11.082;2023-03-24T00:05:18;30.40;;;16.30;;
77400;SDS011;66855;45.414;11.082;2023-03-24T00:07:46;24.80;;;12.40;;
77400;SDS011;66855;45.414;11.082;2023-03-24T00:10:20;32.10;;;16.20;;
77400;SDS011;66855;45.414;11.082;2023-03-24T00:12:48;29.60;;;15.50;;
77400;SDS011;66855;45.414;11.082;2023-03-24T00:15:19;30.00;;;15.80;;
77400;SDS011;66855;45.414;11.082;2023-03-24T00:17:47;29.80;;;14.80;;
77400;SDS011;66855;45.414;11.082;2023-03-24T00:20:18;27.00;;;13.80;;
77400;SDS011;66855;45.414;11.082;2023-03-24T00:22:48;26.80;;;14.20;;
77400;SDS011;66855;45.414;11.082;2023-03-24T00:25:24;29.20;;;16.50;;
77400;SDS011;66855;45.414;11.082;2023-03-24T00:27:54;30.60;;;16.20;;
77400;SDS011;66855;45.414;11.082;2023-03-24T00:30:23;31.90;;;15.70;;
77400;SDS011;66855;45.414;11.082;2023-03-24T00:32:50;34.30;;;19.20;;
77400;SDS011;66855;45.414;11.082;2023-03-24T00:35:18;36.80;;;21.00;;
77400;SDS011;66855;45.414;11.082;2023-03-24T00:37:45;32.20;;;18.40;;
77400;SDS011;66855;45.414;11.082;2023-03-24T00:40:14;34.40;;;17.50;;
77400;SDS011;66855;45.414;11.082;2023-03-24T00:42:44;29.60;;;17.20;;
77400;SDS011;66855;45.414;11.082;2023-03-24T00:47:46;33.10;;;16.30;;
77400;SDS011;66855;45.414;11.082;2023-03-24T00:50:16;29.90;;;16.60;;
77400;SDS011;66855;45.414;11.082;2023-03-24T00:52:46;33.10;;;19.20;;
77400;SDS011;66855;45.414;11.082;2023-03-24T00:55:14;35.10;;;19.60;;
77400;SDS011;66855;45.414;11.082;2023-03-24T00:57:42;35.10;;;18.90;;
77400;SDS011;66855;45.414;11.082;2023-03-24T01:00:20;36.10;;;19.20;;
77400;SDS011;66855;45.414;11.082;2023-03-24T01:02:52;36.10;;;19.40;;
77400;SDS011;66855;45.414;11.082;2023-03-24T01:05:21;35.20;;;18.90;;
77400;SDS011;66855;45.414;11.082;2023-03-24T01:07:51;32.70;;;18.80;;
77400;SDS011;66855;45.414;11.082;2023-03-24T01:10:19;37.10;;;19.40;;
77400;SDS011;66855;45.414;11.082;2023-03-24T01:12:56;34.60;;;17.80;;
77400;SDS011;66855;45.414;11.082;2023-03-24T01:15:26;40.70;;;21.10;;
77400;SDS011;66855;45.414;11.082;2023-03-24T01:17:55;41.00;;;21.00;;
77400;SDS011;66855;45.414;11.082;2023-03-24T01:20:22;40.90;;;22.60;;
77400;SDS011;66855;45.414;11.082;2023-03-24T01:22:49;43.60;;;24.00;;
77400;SDS011;66855;45.414;11.082;2023-03-24T01:25:18;45.90;;;24.00;;
77400;SDS011;66855;45.414;11.082;2023-03-24T01:27:46;56.50;;;27.70;;
77400;SDS011;66855;45.414;11.082;2023-03-24T01:30:15;51.80;;;26.40;;
77400;SDS011;66855;45.414;11.082;2023-03-24T01:32:44;46.20;;;22.70;;
77400;SDS011;66855;45.414;11.082;2023-03-24T01:35:11;43.70;;;23.00;;
77400;SDS011;66855;45.414;11.082;2023-03-24T01:37:39;34.70;;;18.80;;
77400;SDS011;66855;45.414;11.082;2023-03-24T01:40:06;31.90;;;17.30;;
77400;SDS011;66855;45.414;11.082;2023-03-24T01:42:37;35.60;;;17.10;;
77400;SDS011;66855;45.414;11.082;2023-03-24T01:48:14;30.60;;;17.00;;
77400;SDS011;66855;45.414;11.082;2023-03-24T01:51:01;34.80;;;17.60;;
77400;SDS011;66855;45.414;11.082;2023-03-24T01:53:29;27.80;;;13.80;;
77400;SDS011;66855;45.414;11.082;2023-03-24T01:55:58;31.00;;;15.40;;
77400;SDS011;66855;45.414;11.082;2023-03-24T01:58:30;26.20;;;14.00;;
77400;SDS011;66855;45.414;11.082;2023-03-24T02:01:28;30.40;;;13.90;;
77400;SDS011;66855;45.414;11.082;2023-03-24T02:04:25;36.50;;;16.30;;
77400;SDS011;66855;45.414;11.082;2023-03-24T02:06:57;32.50;;;17.60;;
77400;SDS011;66855;45.414;11.082;2023-03-24T02:09:24;30.30;;;17.50;;
77400;SDS011;66855;45.414;11.082;2023-03-24T02:11:51;31.90;;;17.40;;
77400;SDS011;66855;45.414;11.082;2023-03-24T02:14:18;30.30;;;16.60;;
77400;SDS011;66855;45.414;11.082;2023-03-24T02:19:46;29.80;;;16.90;;
77400;SDS011;66855;45.414;11.082;2023-03-24T02:28:16;30.00;;;16.50;;
77400;SDS011;66855;45.414;11.082;2023-03-24T02:34:24;29.00;;;14.80;;
77400;SDS011;66855;45.414;11.082;2023-03-24T02:40:10;31.60;;;15.00;;
77400;SDS011;66855;45.414;11.082;2023-03-24T02:45:34;30.40;;;16.30;;
77400;SDS011;66855;45.414;11.082;2023-03-24T02:50:53;29.00;;;15.60;;
77400;SDS011;66855;45.414;11.082;2023-03-24T02:53:31;26.50;;;14.90;;
77400;SDS011;66855;45.414;11.082;2023-03-24T02:59:58;30.60;;;14.30;;
77400;SDS011;66855;45.414;11.082;2023-03-24T03:02:46;31.40;;;15.40;;
77400;SDS011;66855;45.414;11.082;2023-03-24T03:05:20;28.10;;;16.60;;
77400;SDS011;66855;45.414;11.082;2023-03-24T03:08:01;24.70;;;14.50;;
77400;SDS011;66855;45.414;11.082;2023-03-24T03:10:33;29.30;;;14.00;;
77400;SDS011;66855;45.414;11.082;2023-03-24T03:13:05;29.50;;;13.70;;
77400;SDS011;66855;45.414;11.082;2023-03-24T03:15:47;30.00;;;14.90;;
77400;SDS011;66855;45.414;11.082;2023-03-24T03:21:03;29.70;;;14.00;;
77400;SDS011;66855;45.414;11.082;2023-03-24T03:23:34;29.90;;;15.50;;
77400;SDS011;66855;45.414;11.082;2023-03-24T03:26:04;30.80;;;16.10;;
77400;SDS011;66855;45.414;11.082;2023-03-24T03:28:35;29.80;;;15.80;;
77400;SDS011;66855;45.414;11.082;2023-03-24T03:31:06;30.00;;;16.10;;
77400;SDS011;66855;45.414;11.082;2023-03-24T03:33:37;30.60;;;15.30;;
77400;SDS011;66855;45.414;11.082;2023-03-24T03:36:21;29.90;;;15.30;;
77400;SDS011;66855;45.414;11.082;2023-03-24T03:41:19;29.20;;;15.70;;
77400;SDS011;66855;45.414;11.082;2023-03-24T03:43:46;33.30;;;16.60;;
77400;SDS011;66855;45.414;11.082;2023-03-24T03:46:14;32.80;;;16.40;;
77400;SDS011;66855;45.414;11.082;2023-03-24T03:48:43;33.70;;;16.00;;
77400;SDS011;66855;45.414;11.082;2023-03-24T03:51:11;33.10;;;17.30;;
77400;SDS011;66855;45.414;11.082;2023-03-24T03:53:51;38.40;;;18.20;;
77400;SDS011;66855;45.414;11.082;2023-03-24T03:56:21;36.10;;;18.60;;
77400;SDS011;66855;45.414;11.082;2023-03-24T03:59:22;39.80;;;19.50;;
77400;SDS011;66855;45.414;11.082;2023-03-24T04:01:53;32.60;;;17.20;;
77400;SDS011;66855;45.414;11.082;2023-03-24T04:04:42;33.80;;;18.30;;
77400;SDS011;66855;45.414;11.082;2023-03-24T04:19:34;36.90;;;17.10;;
77400;SDS011;66855;45.414;11.082;2023-03-24T04:25:17;34.50;;;17.70;;
77400;SDS011;66855;45.414;11.082;2023-03-24T04:27:57;34.10;;;18.60;;
77400;SDS011;66855;45.414;11.082;2023-03-24T04:30:49;34.50;;;18.00;;
77400;SDS011;66855;45.414;11.082;2023-03-24T04:33:38;34.90;;;17.00;;
77400;SDS011;66855;45.414;11.082;2023-03-24T04:36:26;32.60;;;18.40;;
77400;SDS011;66855;45.414;11.082;2023-03-24T04:39:23;34.20;;;15.80;;
77400;SDS011;66855;45.414;11.082;2023-03-24T04:41:56;28.90;;;16.10;;
77400;SDS011;66855;45.414;11.082;2023-03-24T04:44:25;30.80;;;16.30;;
77400;SDS011;66855;45.414;11.082;2023-03-24T04:47:19;31.90;;;15.70;;
77400;SDS011;66855;45.414;11.082;2023-03-24T04:50:11;29.50;;;15.30;;
77400;SDS011;66855;45.414;11.082;2023-03-24T04:52:39;30.00;;;15.60;;
77400;SDS011;66855;45.414;11.082;2023-03-24T04:58:07;29.60;;;15.70;;
77400;SDS011;66855;45.414;11.082;2023-03-24T05:00:34;33.80;;;16.80;;
77400;SDS011;66855;45.414;11.082;2023-03-24T05:03:02;34.30;;;16.00;;
77400;SDS011;66855;45.414;11.082;2023-03-24T05:05:30;31.50;;;16.20;;
77400;SDS011;66855;45.414;11.082;2023-03-24T05:07:57;29.40;;;14.90;;
77400;SDS011;66855;45.414;11.082;2023-03-24T05:10:26;35.20;;;17.20;;
77400;SDS011;66855;45.414;11.082;2023-03-24T05:12:54;38.40;;;19.90;;
77400;SDS011;66855;45.414;11.082;2023-03-24T05:15:42;47.90;;;23.70;;
77400;SDS011;66855;45.414;11.082;2023-03-24T05:18:21;46.10;;;23.00;;
77400;SDS011;66855;45.414;11.082;2023-03-24T05:20:48;42.60;;;23.20;;
77400;SDS011;66855;45.414;11.082;2023-03-24T05:23:18;46.10;;;24.10;;
77400;SDS011;66855;45.414;11.082;2023-03-24T05:25:46;49.00;;;24.40;;
77400;SDS011;66855;45.414;11.082;2023-03-24T05:28:14;42.60;;;23.00;;
77400;SDS011;66855;45.414;11.082;2023-03-24T05:30:41;44.90;;;24.20;;
77400;SDS011;66855;45.414;11.082;2023-03-24T05:33:27;45.30;;;23.60;;
77400;SDS011;66855;45.414;11.082;2023-03-24T05:35:54;45.10;;;25.00;;
77400;SDS011;66855;45.414;11.082;2023-03-24T05:38:21;50.60;;;26.40;;
77400;SDS011;66855;45.414;11.082;2023-03-24T05:43:17;42.20;;;21.80;;
77400;SDS011;66855;45.414;11.082;2023-03-24T05:45:54;42.00;;;21.50;;
77400;SDS011;66855;45.414;11.082;2023-03-24T05:48:26;38.60;;;19.90;;
77400;SDS011;66855;45.414;11.082;2023-03-24T05:51:04;44.00;;;23.30;;
77400;SDS011;66855;45.414;11.082;2023-03-24T05:53:31;45.60;;;24.40;;
77400;SDS011;66855;45.414;11.082;2023-03-24T05:56:19;38.10;;;21.40;;
77400;SDS011;66855;45.414;11.082;2023-03-24T05:58:57;44.20;;;21.20;;
77400;SDS011;66855;45.414;11.082;2023-03-24T06:01:44;38.80;;;20.40;;
77400;SDS011;66855;45.414;11.082;2023-03-24T06:04:18;41.40;;;19.70;;
77400;SDS011;66855;45.414;11.082;2023-03-24T06:06:46;41.50;;;21.30;;
77400;SDS011;66855;45.414;11.082;2023-03-24T06:09:16;35.80;;;19.90;;
77400;SDS011;66855;45.414;11.082;2023-03-24T06:11:43;37.50;;;20.20;;
77400;SDS011;66855;45.414;11.082;2023-03-24T06:14:10;38.90;;;20.40;;
77400;SDS011;66855;45.414;11.082;2023-03-24T06:16:46;38.70;;;20.50;;
77400;SDS011;66855;45.414;11.082;2023-03-24T06:19:17;38.60;;;19.70;;
77400;SDS011;66855;45.414;11.082;2023-03-24T06:22:00;40.40;;;21.20;;
77400;SDS011;66855;45.414;11.082;2023-03-24T06:24:31;38.20;;;19.50;;
77400;SDS011;66855;45.414;11.082;2023-03-24T06:27:03;37.00;;;19.80;;
77400;SDS011;66855;45.414;11.082;2023-03-24T06:29:34;37.80;;;20.00;;
77400;SDS011;66855;45.414;11.082;2023-03-24T06:32:02;40.70;;;19.60;;
77400;SDS011;66855;45.414;11.082;2023-03-24T06:34:35;41.70;;;23.10;;
77400;SDS011;66855;45.414;11.082;2023-03-24T06:37:30;35.20;;;20.10;;
77400;SDS011;66855;45.414;11.082;2023-03-24T06:39:58;46.10;;;23.30;;
77400;SDS011;66855;45.414;11.082;2023-03-24T06:42:27;44.30;;;24.00;;
77400;SDS011;66855;45.414;11.082;2023-03-24T06:44:54;43.40;;;23.10;;
77400;SDS011;66855;45.414;11.082;2023-03-24T06:47:21;41.80;;;23.20;;
77400;SDS011;66855;45.414;11.082;2023-03-24T06:49:49;44.30;;;23.40;;
77400;SDS011;66855;45.414;11.082;2023-03-24T06:52:16;44.20;;;24.70;;
77400;SDS011;66855;45.414;11.082;2023-03-24T06:54:43;46.80;;;24.70;;
77400;SDS011;66855;45.414;11.082;2023-03-24T06:57:10;52.10;;;27.70;;
77400;SDS011;66855;45.414;11.082;2023-03-24T06:59:56;48.10;;;28.20;;
77400;SDS011;66855;45.414;11.082;2023-03-24T07:02:23;51.30;;;27.30;;
77400;SDS011;66855;45.414;11.082;2023-03-24T07:04:50;54.40;;;30.60;;
77400;SDS011;66855;45.414;11.082;2023-03-24T07:07:36;53.00;;;32.60;;
77400;SDS011;66855;45.414;11.082;2023-03-24T07:10:35;53.90;;;30.50;;
77400;SDS011;66855;45.414;11.082;2023-03-24T07:13:03;53.90;;;27.50;;
77400;SDS011;66855;45.414;11.082;2023-03-24T07:15:30;51.00;;;28.30;;
77400;SDS011;66855;45.414;11.082;2023-03-24T07:17:57;52.00;;;29.20;;
77400;SDS011;66855;45.414;11.082;2023-03-24T07:20:44;72.90;;;42.00;;
77400;SDS011;66855;45.414;11.082;2023-03-24T07:23:14;79.00;;;45.90;;
77400;SDS011;66855;45.414;11.082;2023-03-24T07:25:50;73.50;;;43.60;;
77400;SDS011;66855;45.414;11.082;2023-03-24T07:31:02;74.90;;;44.20;;
77400;SDS011;66855;45.414;11.082;2023-03-24T07:33:30;71.30;;;41.80;;
77400;SDS011;66855;45.414;11.082;2023-03-24T07:35:57;71.30;;;44.70;;
77400;SDS011;66855;45.414;11.082;2023-03-24T07:38:25;75.30;;;45.20;;
77400;SDS011;66855;45.414;11.082;2023-03-24T07:40:57;75.20;;;45.60;;
77400;SDS011;66855;45.414;11.082;2023-03-24T07:43:25;74.40;;;42.80;;
77400;SDS011;66855;45.414;11.082;2023-03-24T07:46:06;70.00;;;42.40;;
77400;SDS011;66855;45.414;11.082;2023-03-24T07:48:36;67.10;;;39.20;;
77400;SDS011;66855;45.414;11.082;2023-03-24T07:51:02;65.90;;;38.60;;
77400;SDS011;66855;45.414;11.082;2023-03-24T07:54:02;61.80;;;38.10;;
77400;SDS011;66855;45.414;11.082;2023-03-24T07:56:36;62.30;;;37.10;;
77400;SDS011;66855;45.414;11.082;2023-03-24T07:59:03;65.80;;;37.00;;
77400;SDS011;66855;45.414;11.082;2023-03-24T08:01:39;59.20;;;37.00;;
77400;SDS011;66855;45.414;11.082;2023-03-24T08:04:10;56.50;;;33.70;;
77400;SDS011;66855;45.414;11.082;2023-03-24T08:07:03;58.30;;;34.10;;
77400;SDS011;66855;45.414;11.082;2023-03-24T08:09:31;63.80;;;35.80;;
77400;SDS011;66855;45.414;11.082;2023-03-24T08:11:57;57.80;;;34.90;;
77400;SDS011;66855;45.414;11.082;2023-03-24T08:14:39;65.70;;;37.30;;
77400;SDS011;66855;45.414;11.082;2023-03-24T08:17:05;64.90;;;38.60;;
77400;SDS011;66855;45.414;11.082;2023-03-24T08:19:32;65.80;;;38.40;;
77400;SDS011;66855;45.414;11.082;2023-03-24T08:21:59;62.60;;;37.00;;
77400;SDS011;66855;45.414;11.082;2023-03-24T08:24:27;64.30;;;39.20;;
77400;SDS011;66855;45.414;11.082;2023-03-24T08:26:54;62.80;;;37.50;;
77400;SDS011;66855;45.414;11.082;2023-03-24T08:29:24;64.30;;;38.80;;
77400;SDS011;66855;45.414;11.082;2023-03-24T08:31:50;63.60;;;40.90;;
77400;SDS011;66855;45.414;11.082;2023-03-24T08:34:17;64.00;;;39.50;;
77400;SDS011;66855;45.414;11.082;2023-03-24T08:36:44;60.80;;;36.40;;
77400;SDS011;66855;45.414;11.082;2023-03-24T08:39:11;64.70;;;39.00;;
77400;SDS011;66855;45.414;11.082;2023-03-24T08:41:38;58.80;;;37.50;;
77400;SDS011;66855;45.414;11.082;2023-03-24T08:44:04;64.00;;;38.40;;
77400;SDS011;66855;45.414;11.082;2023-03-24T08:46:33;62.20;;;36.80;;
77400;SDS011;66855;45.414;11.082;2023-03-24T08:49:00;61.30;;;37.20;;
77400;SDS011;66855;45.414;11.082;2023-03-24T08:51:28;64.40;;;38.10;;
77400;SDS011;66855;45.414;11.082;2023-03-24T08:53:55;64.80;;;38.70;;
77400;SDS011;66855;45.414;11.082;2023-03-24T08:56:22;65.80;;;40.10;;
77400;SDS011;66855;45.414;11.082;2023-03-24T08:58:49;61.00;;;36.70;;
77400;SDS011;66855;45.414;11.082;2023-03-24T09:01:19;56.90;;;35.50;;
77400;SDS011;66855;45.414;11.082;2023-03-24T09:03:47;60.20;;;37.00;;
77400;SDS011;66855;45.414;11.082;2023-03-24T09:06:14;63.80;;;38.90;;
77400;SDS011;66855;45.414;11.082;2023-03-24T09:08:41;60.20;;;37.50;;
77400;SDS011;66855;45.414;11.082;2023-03-24T09:11:13;60.60;;;37.30;;
77400;SDS011;66855;45.414;11.082;2023-03-24T09:13:41;63.00;;;38.70;;
77400;SDS011;66855;45.414;11.082;2023-03-24T09:16:08;63.50;;;41.30;;
77400;SDS011;66855;45.414;11.082;2023-03-24T09:18:35;58.70;;;36.50;;
77400;SDS011;66855;45.414;11.082;2023-03-24T09:21:03;58.10;;;35.60;;
77400;SDS011;66855;45.414;11.082;2023-03-24T09:23:30;58.90;;;36.00;;
77400;SDS011;66855;45.414;11.082;2023-03-24T09:25:57;48.70;;;31.00;;
77400;SDS011;66855;45.414;11.082;2023-03-24T09:28:24;47.50;;;29.70;;
77400;SDS011;66855;45.414;11.082;2023-03-24T09:30:55;56.50;;;32.70;;
77400;SDS011;66855;45.414;11.082;2023-03-24T09:33:25;51.70;;;32.60;;
77400;SDS011;66855;45.414;11.082;2023-03-24T09:35:53;49.60;;;31.30;;
77400;SDS011;66855;45.414;11.082;2023-03-24T09:38:24;51.00;;;31.00;;
77400;SDS011;66855;45.414;11.082;2023-03-24T09:40:55;47.20;;;30.90;;
77400;SDS011;66855;45.414;11.082;2023-03-24T09:45:56;49.50;;;30.40;;
77400;SDS011;66855;45.414;11.082;2023-03-24T09:50:55;49.40;;;30.40;;
77400;SDS011;66855;45.414;11.082;2023-03-24T09:58:40;44.30;;;29.40;;
77400;SDS011;66855;45.414;11.082;2023-03-24T10:01:14;47.10;;;29.50;;
77400;SDS011;66855;45.414;11.082;2023-03-24T10:03:43;51.10;;;31.70;;
77400;SDS011;66855;45.414;11.082;2023-03-24T10:06:14;50.80;;;31.70;;
77400;SDS011;66855;45.414;11.082;2023-03-24T10:08:49;51.60;;;33.40;;
77400;SDS011;66855;45.414;11.082;2023-03-24T10:14:04;54.00;;;32.00;;
77400;SDS011;66855;45.414;11.082;2023-03-24T10:17:03;52.20;;;33.40;;
77400;SDS011;66855;45.414;11.082;2023-03-24T10:20:09;48.10;;;30.40;;
77400;SDS011;66855;45.414;11.082;2023-03-24T10:25:39;41.80;;;26.90;;
77400;SDS011;66855;45.414;11.082;2023-03-24T10:31:27;37.80;;;24.20;;
77400;SDS011;66855;45.414;11.082;2023-03-24T10:33:55;34.30;;;20.80;;
77400;SDS011;66855;45.414;11.082;2023-03-24T10:36:22;25.20;;;16.50;;
77400;SDS011;66855;45.414;11.082;2023-03-24T10:38:50;26.00;;;17.60;;
77400;SDS011;66855;45.414;11.082;2023-03-24T10:41:18;15.50;;;9.30;;
77400;SDS011;66855;45.414;11.082;2023-03-24T10:43:49;7.00;;;3.50;;
77400;SDS011;66855;45.414;11.082;2023-03-24T10:46:24;8.20;;;3.20;;
77400;SDS011;66855;45.414;11.082;2023-03-24T10:48:54;7.40;;;3.60;;
77400;SDS011;66855;45.414;11.082;2023-03-24T10:51:37;7.50;;;3.30;;
77400;SDS011;66855;45.414;11.082;2023-03-24T10:54:14;5.60;;;2.90;;
77400;SDS011;66855;45.414;11.082;2023-03-24T10:56:59;4.50;;;2.70;;
77400;SDS011;66855;45.414;11.082;2023-03-24T10:59:37;5.70;;;2.60;;
77400;SDS011;66855;45.414;11.082;2023-03-24T11:04:59;5.00;;;2.50;;
77400;SDS011;66855;45.414;11.082;2023-03-24T11:07:49;4.90;;;2.50;;
77400;SDS011;66855;45.414;11.082;2023-03-24T11:10:17;4.30;;;2.00;;
77400;SDS011;66855;45.414;11.082;2023-03-24T11:18:31;4.20;;;2.10;;
77400;SDS011;66855;45.414;11.082;2023-03-24T11:20:59;3.90;;;2.30;;
77400;SDS011;66855;45.414;11.082;2023-03-24T11:23:38;3.40;;;1.90;;
77400;SDS011;66855;45.414;11.082;2023-03-24T11:26:15;4.40;;;2.50;;
77400;SDS011;66855;45.414;11.082;2023-03-24T11:28:45;3.80;;;2.20;;
77400;SDS011;66855;45.414;11.082;2023-03-24T11:31:28;4.50;;;2.70;;
77400;SDS011;66855;45.414;11.082;2023-03-24T11:33:58;5.60;;;2.80;;
77400;SDS011;66855;45.414;11.082;2023-03-24T11:36:36;3.50;;;2.60;;
77400;SDS011;66855;45.414;11.082;2023-03-24T11:39:24;7.60;;;2.60;;
77400;SDS011;66855;45.414;11.082;2023-03-24T11:41:54;4.30;;;3.10;;
77400;SDS011;66855;45.414;11.082;2023-03-24T11:44:29;5.70;;;3.10;;
77400;SDS011;66855;45.414;11.082;2023-03-24T11:47:03;5.80;;;2.90;;
77400;SDS011;66855;45.414;11.082;2023-03-24T11:49:39;5.30;;;3.10;;
77400;SDS011;66855;45.414;11.082;2023-03-24T11:52:13;4.40;;;2.50;;
77400;SDS011;66855;45.414;11.082;2023-03-24T11:54:47;4.00;;;3.60;;
77400;SDS011;66855;45.414;11.082;2023-03-24T11:57:14;8.00;;;3.10;;
77400;SDS011;66855;45.414;11.082;2023-03-24T11:59:49;6.60;;;3.20;;
77400;SDS011;66855;45.414;11.082;2023-03-24T12:07:51;4.00;;;2.80;;
77400;SDS011;66855;45.414;11.082;2023-03-24T12:13:06;3.50;;;2.90;;
77400;SDS011;66855;45.414;11.082;2023-03-24T12:22:05;3.90;;;2.60;;
77400;SDS011;66855;45.414;11.082;2023-03-24T12:24:51;3.70;;;3.10;;
77400;SDS011;66855;45.414;11.082;2023-03-24T12:38:31;3.90;;;3.00;;
77400;SDS011;66855;45.414;11.082;2023-03-24T12:41:21;4.70;;;3.30;;
77400;SDS011;66855;45.414;11.082;2023-03-24T12:46:46;5.30;;;3.40;;
77400;SDS011;66855;45.414;11.082;2023-03-24T12:49:26;6.40;;;3.50;;
77400;SDS011;66855;45.414;11.082;2023-03-24T12:52:11;5.90;;;3.80;;
77400;SDS011;66855;45.414;11.082;2023-03-24T12:54:51;6.60;;;4.30;;
77400;SDS011;66855;45.414;11.082;2023-03-24T12:57:47;5.00;;;4.50;;
77400;SDS011;66855;45.414;11.082;2023-03-24T13:00:18;6.20;;;4.20;;
77400;SDS011;66855;45.414;11.082;2023-03-24T13:02:59;6.60;;;4.90;;
77400;SDS011;66855;45.414;11.082;2023-03-24T13:05:31;7.10;;;4.50;;
77400;SDS011;66855;45.414;11.082;2023-03-24T13:08:02;6.60;;;5.00;;
77400;SDS011;66855;45.414;11.082;2023-03-24T13:10:34;7.20;;;5.30;;
77400;SDS011;66855;45.414;11.082;2023-03-24T13:13:12;6.00;;;4.60;;
77400;SDS011;66855;45.414;11.082;2023-03-24T13:15:56;6.10;;;5.00;;
77400;SDS011;66855;45.414;11.082;2023-03-24T13:18:34;7.40;;;4.60;;
77400;SDS011;66855;45.414;11.082;2023-03-24T13:21:05;5.20;;;4.60;;
77400;SDS011;66855;45.414;11.082;2023-03-24T13:23:39;8.10;;;4.60;;
77400;SDS011;66855;45.414;11.082;2023-03-24T13:31:27;6.40;;;4.30;;
77400;SDS011;66855;45.414;11.082;2023-03-24T13:33:57;7.30;;;4.70;;
77400;SDS011;66855;45.414;11.082;2023-03-24T13:36:45;6.90;;;5.40;;
77400;SDS011;66855;45.414;11.082;2023-03-24T13:39:18;7.00;;;4.90;;
77400;SDS011;66855;45.414;11.082;2023-03-24T13:42:26;7.90;;;5.60;;
77400;SDS011;66855;45.414;11.082;2023-03-24T13:45:01;9.40;;;5.80;;
77400;SDS011;66855;45.414;11.082;2023-03-24T13:48:01;6.80;;;6.10;;
77400;SDS011;66855;45.414;11.082;2023-03-24T13:50:32;8.20;;;5.40;;
77400;SDS011;66855;45.414;11.082;2023-03-24T13:53:12;8.00;;;5.20;;
77400;SDS011;66855;45.414;11.082;2023-03-24T13:55:45;7.90;;;5.80;;
77400;SDS011;66855;45.414;11.082;2023-03-24T13:58:19;6.30;;;5.30;;
77400;SDS011;66855;45.414;11.082;2023-03-24T14:03:33;9.30;;;5.70;;
77400;SDS011;66855;45.414;11.082;2023-03-24T14:06:02;7.90;;;5.50;;
77400;SDS011;66855;45.414;11.082;2023-03-24T14:14:10;7.80;;;5.30;;
77400;SDS011;66855;45.414;11.082;2023-03-24T14:16:48;9.20;;;6.30;;
77400;SDS011;66855;45.414;11.082;2023-03-24T14:19:29;10.40;;;6.00;;
77400;SDS011;66855;45.414;11.082;2023-03-24T14:22:03;7.30;;;6.20;;
77400;SDS011;66855;45.414;11.082;2023-03-24T14:24:32;8.00;;;6.00;;
77400;SDS011;66855;45.414;11.082;2023-03-24T14:29:37;5.90;;;4.90;;
77400;SDS011;66855;45.414;11.082;2023-03-24T14:32:11;7.50;;;5.90;;
77400;SDS011;66855;45.414;11.082;2023-03-24T14:34:49;8.40;;;6.70;;
77400;SDS011;66855;45.414;11.082;2023-03-24T14:37:17;7.90;;;6.10;;
77400;SDS011;66855;45.414;11.082;2023-03-24T14:39:45;8.60;;;6.60;;
77400;SDS011;66855;45.414;11.082;2023-03-24T14:47:59;10.50;;;5.70;;
77400;SDS011;66855;45.414;11.082;2023-03-24T14:50:27;8.40;;;6.50;;
77400;SDS011;66855;45.414;11.082;2023-03-24T14:52:57;8.80;;;6.20;;
77400;SDS011;66855;45.414;11.082;2023-03-24T14:55:25;7.00;;;6.30;;
77400;SDS011;66855;45.414;11.082;2023-03-24T14:57:58;7.70;;;6.90;;
77400;SDS011;66855;45.414;11.082;2023-03-24T15:00:45;7.30;;;6.00;;
77400;SDS011;66855;45.414;11.082;2023-03-24T15:03:33;8.80;;;6.20;;
77400;SDS011;66855;45.414;11.082;2023-03-24T15:06:12;8.50;;;6.30;;
77400;SDS011;66855;45.414;11.082;2023-03-24T15:08:47;7.60;;;6.10;;
77400;SDS011;66855;45.414;11.082;2023-03-24T15:11:28;8.00;;;6.30;;
77400;SDS011;66855;45.414;11.082;2023-03-24T15:13:57;9.30;;;6.40;;
77400;SDS011;66855;45.414;11.082;2023-03-24T15:16:29;9.20;;;6.80;;
77400;SDS011;66855;45.414;11.082;2023-03-24T15:21:35;8.30;;;5.40;;
77400;SDS011;66855;45.414;11.082;2023-03-24T15:24:27;7.00;;;6.00;;
77400;SDS011;66855;45.414;11.082;2023-03-24T15:29:53;11.90;;;6.00;;
77400;SDS011;66855;45.414;11.082;2023-03-24T15:32:23;8.90;;;6.00;;
77400;SDS011;66855;45.414;11.082;2023-03-24T15:34:58;8.10;;;5.80;;
77400;SDS011;66855;45.414;11.082;2023-03-24T15:42:55;7.00;;;5.50;;
77400;SDS011;66855;45.414;11.082;2023-03-24T15:45:25;7.90;;;5.70;;
77400;SDS011;66855;45.414;11.082;2023-03-24T15:47:54;7.70;;;6.50;;
77400;SDS011;66855;45.414;11.082;2023-03-24T15:50:29;7.50;;;5.30;;
77400;SDS011;66855;45.414;11.082;2023-03-24T15:53:05;9.40;;;5.10;;
77400;SDS011;66855;45.414;11.082;2023-03-24T15:55:46;7.50;;;4.80;;
77400;SDS011;66855;45.414;11.082;2023-03-24T15:58:23;8.00;;;5.10;;
77400;SDS011;66855;45.414;11.082;2023-03-24T16:00:58;11.70;;;4.90;;
77400;SDS011;66855;45.414;11.082;2023-03-24T16:05:53;7.10;;;5.10;;
77400;SDS011;66855;45.414;11.082;2023-03-24T16:08:34;14.50;;;8.70;;
77400;SDS011;66855;45.414;11.082;2023-03-24T16:11:07;16.80;;;9.80;;
77400;SDS011;66855;45.414;11.082;2023-03-24T16:13:39;15.30;;;9.90;;
77400;SDS011;66855;45.414;11.082;2023-03-24T16:18:45;11.40;;;7.80;;
77400;SDS011;66855;45.414;11.082;2023-03-24T16:21:14;8.20;;;6.00;;
77400;SDS011;66855;45.414;11.082;2023-03-24T16:23:43;7.40;;;5.00;;
77400;SDS011;66855;45.414;11.082;2023-03-24T16:26:14;8.60;;;4.10;;
77400;SDS011;66855;45.414;11.082;2023-03-24T16:29:05;6.80;;;4.40;;
77400;SDS011;66855;45.414;11.082;2023-03-24T16:31:42;6.60;;;4.80;;
77400;SDS011;66855;45.414;11.082;2023-03-24T16:34:10;7.10;;;5.10;;
77400;SDS011;66855;45.414;11.082;2023-03-24T16:36:37;7.20;;;5.40;;
77400;SDS011;66855;45.414;11.082;2023-03-24T16:39:05;9.60;;;5.10;;
77400;SDS011;66855;45.414;11.082;2023-03-24T16:41:39;11.60;;;4.70;;
77400;SDS011;66855;45.414;11.082;2023-03-24T16:44:05;7.70;;;5.30;;
77400;SDS011;66855;45.414;11.082;2023-03-24T16:46:33;12.90;;;5.50;;
77400;SDS011;66855;45.414;11.082;2023-03-24T16:49:01;8.50;;;4.70;;
77400;SDS011;66855;45.414;11.082;2023-03-24T16:51:31;7.30;;;5.30;;
77400;SDS011;66855;45.414;11.082;2023-03-24T16:53:58;10.80;;;5.40;;
77400;SDS011;66855;45.414;11.082;2023-03-24T16:56:25;7.20;;;5.30;;
77400;SDS011;66855;45.414;11.082;2023-03-24T16:58:52;11.40;;;6.40;;
77400;SDS011;66855;45.414;11.082;2023-03-24T17:01:26;13.20;;;5.50;;
77400;SDS011;66855;45.414;11.082;2023-03-24T17:04:00;12.30;;;5.90;;
77400;SDS011;66855;45.414;11.082;2023-03-24T17:06:38;8.40;;;5.50;;
77400;SDS011;66855;45.414;11.082;2023-03-24T17:09:07;9.50;;;5.30;;
77400;SDS011;66855;45.414;11.082;2023-03-24T17:11:41;10.20;;;6.00;;
77400;SDS011;66855;45.414;11.082;2023-03-24T17:14:13;9.70;;;4.90;;
77400;SDS011;66855;45.414;11.082;2023-03-24T17:16:41;6.00;;;4.50;;
77400;SDS011;66855;45.414;11.082;2023-03-24T17:19:13;9.30;;;4.50;;
77400;SDS011;66855;45.414;11.082;2023-03-24T17:21:49;8.70;;;4.70;;
77400;SDS011;66855;45.414;11.082;2023-03-24T17:24:23;9.80;;;4.10;;
77400;SDS011;66855;45.414;11.082;2023-03-24T17:26:51;10.20;;;5.00;;